Aeroporto :
LOGIN :

Iscrizione | Disclaimer

   EN    FR    IT 

 










Sommario :    VFR   VFR Marginale   IFR   IFR Intensivo   IFR Molto Intensivo
Visibilità : 
Base nubi : 
>= 8 km
>= 3000ft
5 / 8 km
1000 / 3000 ft
1500m / 5 km
500 / 1000 ft
800 / 1500m
200 / 500 ft
< 800m
< 200 ft
Simboli :   Temporali  Nebbia  Neve Forte  Precipitazioni Forti  Vento > 20 kt
SIGMETs :   Varie  Temporali  Ghiacco  Turbolenza  Onda orograficha  Ceneri Vulcaniche






- Altitudine del aeroporto : 1411 ft
- Codice IATA : ZHI


LSZG - Grenchen

ULTIMO METAR :
  • 290820Z 03001KT 9999 SCT021 M01/M02 Q1009

METARs OBSOLETI :
  • 290750Z 33001KT 9999 BKN022 M03/M05 Q1009
  • 290720Z 25002KT 9999 SCT050 M01/M03 Q1009
  • 290650Z 26002KT 9999 FEW030 M02/M03 Q1009
  • 290620Z AUTO 24003KT 9999 NCD M01/M02 Q1009
  • 290550Z AUTO VRB01KT 9999 OVC030 M01/M02 Q1009
  • 290520Z AUTO VRB02KT 9999 BKN032 M01/M03 Q1009
  • 290450Z AUTO 20004KT 9999 OVC032 M01/M02 Q1009
  • 290420Z AUTO 25002KT 9999 OVC035 M01/M02 Q1009
  • 290350Z AUTO 14002KT 9999 OVC035 M01/M01 Q1009

TAF TAF LSZG
Valido dal 29 a 06 ore il 29 a 15 ore UTC


290525Z 2906/2915 VRB02KT 9999 BKN032
BECMG 2907/2910 CAVOK
ATIS : +41 32 396 96 33



MetMap, La meteo Aeronautica in un colpo d'occhio ! - Copyright ORBIFLY Dicembre 2007 - Disclaimer

ORBIFLY MET'MAP TEAM :

Programmazione e sviluppo : Alexandra Zaïnal
Concezione : Baudouin d'Aumeries
Supporto tecnico e logistico : Manuel Goepfert
Aiuto : Marc-Olivier Méhu
Aiuto per la traduzione : Arnaldo La Scala




FONTI E CREDITI :

   NOAA